Time;durP1;ratioP1;P1;durP2;ratioP2;P2;SDS_P1;SDS_P2;PMS_P1;PMS_P2;Temp;Humidity;BMP_temperature;BMP_pressure;BME280_temperature;BME280_humidity;BME280_pressure;Samples;Min_cycle;Max_cycle;Signal;HPM_P1;HPM_P2
2021/04/14 00:00:40;;;;;;;17.90;6.23;;;;;;;4.87;67.90;101429.00;3549903;81;98109;-87
2021/04/14 00:05:41;;;;;;;16.13;5.30;;;;;;;4.77;67.69;101423.28;3552750;81;32401;-87
2021/04/14 00:10:42;;;;;;;13.47;6.07;;;;;;;4.70;67.80;101415.30;3601782;79;98255;-87
2021/04/14 00:15:48;;;;;;;15.40;5.77;;;;;;;4.58;68.06;101412.36;3604069;80;32951;-87
2021/04/14 00:20:49;;;;;;;12.93;5.70;;;;;;;4.48;68.38;101411.25;3607424;80;26285;-87
2021/04/14 00:25:51;;;;;;;13.57;4.27;;;;;;;4.36;68.63;101407.73;3596588;80;98678;-87
2021/04/14 00:30:54;;;;;;;14.60;4.97;;;;;;;4.29;69.36;101410.64;3609043;79;33447;-87
2021/04/14 00:35:55;;;;;;;16.93;5.37;;;;;;;4.16;69.47;101408.23;3593801;79;98591;-88
2021/04/14 00:41:10;;;;;;;13.07;4.30;;;;;;;4.14;69.73;101409.69;3583577;81;33041;-89
2021/04/14 00:46:11;;;;;;;15.47;4.80;;;;;;;4.08;70.19;101407.63;3605896;80;98669;-88
2021/04/14 00:51:12;;;;;;;11.90;3.87;;;;;;;4.04;70.37;101403.13;3613696;80;34111;-87
2021/04/14 00:56:13;;;;;;;13.37;3.87;;;;;;;3.91;70.64;101374.02;3596455;80;98552;-87
2021/04/14 01:01:14;;;;;;;12.57;3.70;;;;;;;4.12;71.01;101399.09;3607769;80;33080;-88
2021/04/14 01:06:21;;;;;;;10.57;3.43;;;;;;;4.24;70.79;101402.59;3603718;80;98657;-89
2021/04/14 01:11:24;;;;;;;13.30;4.30;;;;;;;4.35;70.74;101397.13;3618854;80;32988;-88
2021/04/14 01:16:25;;;;;;;12.28;4.58;;;;;;;4.40;70.53;101407.91;3564719;81;98818;-87
2021/04/14 01:21:41;;;;;;;9.33;3.87;;;;;;;4.38;70.59;101407.42;3604506;80;34098;-88
2021/04/14 01:26:43;;;;;;;12.03;3.80;;;;;;;4.33;70.57;101417.09;3557283;81;98360;-87
2021/04/14 01:31:44;;;;;;;11.47;3.80;;;;;;;4.23;70.75;101411.89;3527262;82;33561;-88
2021/04/14 01:36:45;;;;;;;11.57;4.50;;;;;;;4.08;70.79;101408.99;3507874;82;98365;-89
2021/04/14 01:41:46;;;;;;;11.87;3.87;;;;;;;4.01;71.15;101405.91;3514538;82;33053;-88
2021/04/14 01:46:47;;;;;;;11.47;3.20;;;;;;;3.92;71.40;101402.30;3506523;82;98525;-87
2021/04/14 01:51:49;;;;;;;8.97;3.53;;;;;;;3.85;71.65;101391.05;3509352;82;33025;-87
2021/04/14 01:56:49;;;;;;;9.27;3.33;;;;;;;3.79;71.87;101389.56;3501423;81;98015;-89
2021/04/14 02:01:50;;;;;;;10.67;3.50;;;;;;;3.73;72.19;101381.27;3523602;82;33386;-88
2021/04/14 02:06:51;;;;;;;10.40;3.87;;;;;;;3.74;72.39;101388.86;3505623;82;98581;-87
2021/04/14 02:11:51;;;;;;;13.10;3.73;;;;;;;3.79;72.56;101384.66;3518210;82;31714;-87
2021/04/14 02:16:53;;;;;;;12.03;4.03;;;;;;;3.90;72.35;101388.75;3513540;81;98737;-88
2021/04/14 02:21:54;;;;;;;11.00;3.50;;;;;;;3.88;72.26;101382.25;3509758;82;31780;-87
2021/04/14 02:26:55;;;;;;;13.17;4.23;;;;;;;3.91;72.40;101373.47;3540064;80;98548;-88
2021/04/14 02:31:56;;;;;;;12.43;4.80;;;;;;;3.87;72.15;101388.02;3614298;80;32733;-87
2021/04/14 02:36:56;;;;;;;14.73;4.60;;;;;;;3.83;72.37;101388.38;3603302;80;98299;-88
2021/04/14 02:41:58;;;;;;;8.90;4.40;;;;;;;3.76;72.52;101383.36;3590128;80;31862;-87
2021/04/14 02:46:59;;;;;;;12.80;4.90;;;;;;;3.62;72.73;101381.80;3610722;80;98169;-88
2021/04/14 02:51:59;;;;;;;12.33;4.40;;;;;;;3.58;72.90;101382.16;3609504;80;30838;-87
2021/04/14 02:57:00;;;;;;;11.97;3.73;;;;;;;3.54;73.02;101383.33;3610541;80;98531;-88
2021/04/14 03:02:01;;;;;;;11.77;4.70;;;;;;;3.54;73.22;101379.80;3617065;80;26071;-88
2021/04/14 03:07:03;;;;;;;10.03;3.67;;;;;;;3.54;73.04;101379.25;3608115;80;98176;-88
2021/04/14 03:12:06;;;;;;;9.73;3.30;;;;;;;3.58;73.27;101374.00;3615288;79;35052;-88
2021/04/14 03:17:07;;;;;;;10.87;3.83;;;;;;;3.61;73.32;101377.48;3612213;79;98840;-88
2021/04/14 03:22:08;;;;;;;10.77;3.47;;;;;;;3.57;73.39;101375.11;3607178;79;35083;-87
2021/04/14 03:27:09;;;;;;;10.23;3.90;;;;;;;3.57;73.62;101373.21;3598522;80;98755;-87
2021/04/14 03:32:10;;;;;;;14.87;3.60;;;;;;;3.67;73.65;101373.52;3601412;79;35030;-88
2021/04/14 03:37:11;;;;;;;10.80;3.53;;;;;;;3.67;73.65;101373.52;3604748;80;98662;-87
2021/04/14 03:42:12;;;;;;;13.40;4.27;;;;;;;3.77;73.72;101372.71;3606374;80;34983;-87
2021/04/14 03:47:12;;;;;;;9.27;3.60;;;;;;;3.80;73.53;101379.45;3610268;80;98739;-87
2021/04/14 03:52:13;;;;;;;13.03;4.50;;;;;;;3.72;73.38;101384.30;3612517;79;35492;-87
2021/04/14 03:57:14;;;;;;;14.83;4.28;;;;;;;3.64;73.52;101379.56;3590964;80;98574;-87
2021/04/14 04:02:15;;;;;;;11.83;3.93;;;;;;;3.49;73.65;101384.81;3608932;80;33242;-87
2021/04/14 04:07:16;;;;;;;11.07;3.67;;;;;;;3.41;73.88;101388.27;3575401;81;98634;-87
2021/04/14 04:12:16;;;;;;;11.40;3.93;;;;;;;3.36;73.86;101382.13;3621208;80;32946;-87
2021/04/14 04:17:20;;;;;;;9.13;3.50;;;;;;;3.29;74.09;101395.34;3562117;81;98826;-87
2021/04/14 04:22:21;;;;;;;12.20;3.23;;;;;;;3.22;74.39;101390.31;3672990;79;26055;-87
2021/04/14 04:27:22;;;;;;;10.13;2.90;;;;;;;3.25;74.69;101391.61;3647948;79;98123;-88
2021/04/14 04:32:23;;;;;;;8.93;2.67;;;;;;;3.34;74.67;101399.31;3651979;79;33172;-88
2021/04/14 04:37:23;;;;;;;8.17;3.03;;;;;;;3.40;74.85;101400.81;3640798;79;98401;-88
2021/04/14 04:42:24;;;;;;;12.00;3.97;;;;;;;3.38;74.97;101391.59;3642544;79;32592;-88
2021/04/14 04:47:25;;;;;;;8.97;3.63;;;;;;;3.39;74.63;101394.55;3605331;79;98160;-88
2021/04/14 04:52:27;;;;;;;13.43;3.27;;;;;;;3.38;74.71;101398.39;3583016;81;32693;-87
2021/04/14 04:57:27;;;;;;;14.93;3.58;;;;;;;3.30;74.94;101397.77;3571366;81;98372;-87
2021/04/14 05:02:28;;;;;;;12.15;3.67;;;;;;;3.25;74.99;101397.05;3571868;81;32490;-88
2021/04/14 05:07:29;;;;;;;14.90;4.07;;;;;;;3.22;75.21;101400.41;3576329;80;98392;-87
2021/04/14 05:12:30;;;;;;;27.73;6.83;;;;;;;3.11;75.68;101384.05;3576038;81;26013;-87
2021/04/14 05:17:30;;;;;;;19.30;4.57;;;;;;;3.11;75.68;101384.05;3585709;79;98503;-87
2021/04/14 05:22:31;;;;;;;13.43;3.67;;;;;;;3.34;75.83;101413.70;3629526;79;25931;-87
2021/04/14 05:27:32;;;;;;;10.37;3.57;;;;;;;3.46;75.92;101403.67;3560236;80;98348;-89
2021/04/14 05:32:33;;;;;;;13.70;4.03;;;;;;;3.61;75.98;101412.86;3598584;80;26507;-88
2021/04/14 05:37:34;;;;;;;16.27;3.87;;;;;;;3.70;75.79;101412.36;3604012;80;98614;-87
2021/04/14 05:42:44;;;;;;;12.80;3.70;;;;;;;3.74;75.64;101409.28;3607302;80;26178;-88
2021/04/14 05:47:45;;;;;;;11.55;3.50;;;;;;;3.73;75.43;101422.11;3596371;80;98706;-89
2021/04/14 05:52:46;;;;;;;12.67;3.17;;;;;;;3.67;75.59;101423.87;3609422;80;25972;-88
2021/04/14 05:57:46;;;;;;;9.37;3.80;;;;;;;3.64;75.57;101419.85;3595554;80;98330;-87
2021/04/14 06:02:47;;;;;;;11.57;3.97;;;;;;;3.74;76.02;101418.27;3607561;80;25946;-87
2021/04/14 06:07:49;;;;;;;15.87;4.30;;;;;;;3.84;76.05;101419.94;3594198;80;98328;-88
2021/04/14 06:12:53;;;;;;;11.20;3.60;;;;;;;3.93;75.92;101425.70;3608233;80;26728;-87
2021/04/14 06:17:54;;;;;;;13.50;3.63;;;;;;;4.02;75.95;101422.49;3598670;80;98133;-87
2021/04/14 06:22:58;;;;;;;14.97;4.30;;;;;;;4.13;75.87;101417.59;3606596;80;26877;-87
2021/04/14 06:28:04;;;;;;;18.48;4.33;;;;;;;4.23;75.94;101416.80;3593338;80;98322;-87
2021/04/14 06:33:05;;;;;;;10.00;3.87;;;;;;;4.41;76.06;101420.41;3607806;80;27249;-88
2021/04/14 06:38:06;;;;;;;11.57;4.40;;;;;;;4.50;75.70;101417.19;3601234;80;98299;-88
2021/04/14 06:43:38;;;;;;;15.63;3.37;;;;;;;4.58;75.59;101416.45;3609330;80;25989;-89
2021/04/14 06:48:47;;;;;;;11.10;3.90;;;;;;;4.70;75.82;101426.20;3596796;80;98617;-86
2021/04/14 06:53:53;;;;;;;12.20;3.60;;;;;;;4.90;75.57;101420.99;3600702;80;27536;-89
2021/04/14 06:59:04;;;;;;;15.38;4.17;;;;;;;5.02;75.25;101414.38;3591738;80;98655;-87
2021/04/14 07:04:22;;;;;;;14.37;3.83;;;;;;;5.28;75.46;101412.52;3605027;80;27456;-88
2021/04/14 07:09:36;;;;;;;14.70;3.53;;;;;;;5.64;74.93;101411.71;3559669;80;98495;-87
2021/04/14 07:14:38;;;;;;;12.10;5.10;;;;;;;5.82;74.68;101416.63;3540220;81;27668;-88
2021/04/14 07:20:19;;;;;;;14.13;4.23;;;;;;;5.86;74.52;101412.14;3538977;81;98335;-88
2021/04/14 07:25:31;;;;;;;14.57;4.10;;;;;;;6.01;74.15;101424.73;3541418;81;27576;-88
2021/04/14 07:30:49;;;;;;;14.37;4.80;;;;;;;6.06;73.56;101419.11;3505360;81;98530;-88
2021/04/14 07:36:10;;;;;;;14.27;4.50;;;;;;;6.10;73.92;101418.72;3493386;83;109307;-88
2021/04/14 07:41:38;;;;;;;13.30;4.93;;;;;;;6.37;74.04;101409.34;3522027;82;27500;-88
2021/04/14 07:46:41;;;;;;;15.07;7.43;;;;;;;6.58;74.01;101406.97;3522915;82;98489;-90
2021/04/14 07:51:43;;;;;;;12.33;5.10;;;;;;;6.86;73.43;101406.78;3467403;83;26252;-89
2021/04/14 07:56:51;;;;;;;10.10;4.65;;;;;;;7.00;73.39;101412.03;3509547;82;98459;-89
2021/04/14 08:02:03;;;;;;;13.37;4.60;;;;;;;7.28;72.93;101415.36;3489515;83;27623;-88
2021/04/14 08:07:20;;;;;;;12.33;4.30;;;;;;;7.44;72.21;101414.20;3487528;83;98413;-89
2021/04/14 08:12:34;;;;;;;10.77;4.80;;;;;;;7.66;72.00;101411.96;3466377;82;28239;-88
2021/04/14 08:17:36;;;;;;;15.40;4.17;;;;;;;7.87;71.29;101413.33;3535295;81;98610;-88
2021/04/14 08:22:37;;;;;;;13.97;4.30;;;;;;;8.04;70.36;101422.77;3540072;81;27720;-88
2021/04/14 08:27:54;;;;;;;12.70;4.50;;;;;;;8.27;70.15;101412.51;3537512;81;98695;-90
2021/04/14 08:32:58;;;;;;;10.70;4.00;;;;;;;8.50;69.20;101419.79;3525735;82;26160;-87
2021/04/14 08:38:13;;;;;;;10.05;4.35;;;;;;;8.60;68.92;101413.84;3542713;81;98616;-89
2021/04/14 08:43:33;;;;;;;9.90;3.80;;;;;;;9.02;69.38;101407.05;3532916;82;27538;-88
2021/04/14 08:48:37;;;;;;;11.90;4.63;;;;;;;9.24;68.30;101403.28;3560922;81;98903;-89
2021/04/14 08:53:41;;;;;;;13.90;4.17;;;;;;;9.56;67.50;101398.77;3550127;81;27509;-87
2021/04/14 08:58:42;;;;;;;12.37;4.47;;;;;;;9.72;66.76;101398.28;3537874;81;99014;-90
2021/04/14 09:03:46;;;;;;;9.87;3.80;;;;;;;10.16;65.35;101391.73;3540774;81;26084;-91
2021/04/14 09:08:50;;;;;;;7.10;2.87;;;;;;;10.49;65.90;101386.74;3539043;81;98852;-89
2021/04/14 09:14:02;;;;;;;9.93;3.97;;;;;;;10.90;62.58;101383.50;3516718;82;25954;-90
2021/04/14 09:19:36;;;;;;;13.07;5.77;;;;;;;11.05;62.74;101375.78;3536705;81;98385;-89
2021/04/14 09:24:45;;;;;;;9.97;4.23;;;;;;;11.48;60.81;101381.12;3544004;81;28285;-90
2021/04/14 09:30:09;;;;;;;11.90;4.27;;;;;;;11.51;59.88;101372.15;3562549;80;98545;-92
2021/04/14 09:35:22;;;;;;;9.97;3.93;;;;;;;11.86;61.04;101376.50;3602704;80;27653;-89
2021/04/14 09:40:33;;;;;;;12.68;3.83;;;;;;;11.69;57.79;101374.73;3599763;80;98370;-86
2021/04/14 09:45:37;;;;;;;5.67;2.40;;;;;;;11.82;58.22;101378.98;3601563;80;27560;-93
2021/04/14 09:50:42;;;;;;;7.45;2.90;;;;;;;11.73;57.08;101370.11;3600815;80;98283;-92
2021/04/14 09:55:52;;;;;;;7.97;2.83;;;;;;;11.84;58.29;101369.75;3601863;80;27437;-90
2021/04/14 10:00:58;;;;;;;5.47;2.23;;;;;;;12.14;57.20;101371.55;3605645;80;27586;-88
2021/04/14 10:06:09;;;;;;;8.00;2.60;;;;;;;12.01;55.31;101371.50;3610357;80;98841;-92
2021/04/14 10:11:33;;;;;;;7.67;2.77;;;;;;;11.97;54.61;101369.81;3613566;80;27532;-92
2021/04/14 10:16:34;;;;;;;7.50;2.50;;;;;;;12.06;56.28;101368.45;3609810;80;98922;-90
2021/04/14 10:21:40;;;;;;;5.20;2.10;;;;;;;12.18;55.07;101366.09;3620631;80;26699;-94
2021/04/14 10:26:55;;;;;;;5.47;2.10;;;;;;;12.23;54.47;101365.23;3609141;80;98633;-93
2021/04/14 10:31:59;;;;;;;7.03;2.40;;;;;;;12.35;54.44;101367.02;3628624;80;27501;-92
2021/04/14 10:37:14;;;;;;;6.58;1.87;;;;;;;12.74;54.39;101356.89;3585798;80;98403;-89
2021/04/14 10:42:19;;;;;;;8.13;1.90;;;;;;;12.94;52.48;101363.94;3619559;80;28003;-91
2021/04/14 10:47:29;;;;;;;5.40;1.90;;;;;;;13.00;51.81;101354.77;3618015;80;98897;-92
2021/04/14 10:52:30;;;;;;;5.27;2.00;;;;;;;13.21;51.91;101353.15;3639227;79;28312;-90
2021/04/14 10:57:39;;;;;;;4.77;1.80;;;;;;;13.55;50.72;101337.42;3628348;79;98578;-88
2021/04/14 11:02:44;;;;;;;4.20;2.00;;;;;;;13.52;50.24;101338.97;3636641;79;28159;-87
2021/04/14 11:07:48;;;;;;;4.40;1.60;;;;;;;13.60;49.22;101344.01;3621825;79;98425;-92
2021/04/14 11:12:50;;;;;;;4.03;1.40;;;;;;;13.83;47.61;101330.86;3629445;79;29360;-89
2021/04/14 11:18:05;;;;;;;4.73;1.60;;;;;;;13.83;47.61;101330.86;3615738;79;98715;-91
2021/04/14 11:23:20;;;;;;;3.37;0.95;;;;;;;13.57;48.14;101339.24;3621844;80;32788;-88
2021/04/14 11:28:20;;;;;;;5.77;1.60;;;;;;;13.67;46.80;101331.64;3611884;80;98574;-94
2021/04/14 11:33:39;;;;;;;7.20;2.00;;;;;;;13.65;46.57;101334.00;3620011;80;28639;-94
2021/04/14 11:38:42;;;;;;;7.07;1.73;;;;;;;13.82;47.16;101331.47;3597460;80;98692;-89
2021/04/14 11:43:43;;;;;;;5.00;1.80;;;;;;;13.81;45.94;101323.53;3615183;80;27908;-88
2021/04/14 11:48:49;;;;;;;4.10;1.67;;;;;;;13.58;44.79;101318.70;3603923;80;98308;-92
2021/04/14 11:53:53;;;;;;;;;;;;;;;13.71;45.46;101320.05;3603830;80;27527;-92
2021/04/14 11:58:54;;;;;;;6.85;2.20;;;;;;;13.64;44.49;101326.88;3606728;80;85287;-89
2021/04/14 12:03:55;;;;;;;3.03;1.10;;;;;;;13.46;45.80;101321.71;3599056;80;26067;-89
2021/04/14 12:08:56;;;;;;;5.13;1.57;;;;;;;13.62;45.20;101316.78;3598779;80;98578;-91
2021/04/14 12:13:57;;;;;;;4.20;1.33;;;;;;;13.81;45.20;101318.00;3607723;80;26575;-93
2021/04/14 12:18:58;;;;;;;6.83;1.80;;;;;;;13.47;44.36;101305.32;3594435;80;98374;-94
2021/04/14 12:23:59;;;;;;;4.07;1.20;;;;;;;13.61;44.39;101308.25;3611076;80;26321;-91
2021/04/14 12:28:59;;;;;;;3.23;1.10;;;;;;;13.76;44.12;101301.16;3605806;80;98306;-89
2021/04/14 12:34:03;;;;;;;2.87;1.30;;;;;;;13.86;42.34;101302.45;3572526;80;26404;-89
2021/04/14 12:39:07;;;;;;;4.00;1.43;;;;;;;13.69;42.87;101310.73;3545741;81;98414;-89
2021/04/14 12:44:09;;;;;;;6.23;1.67;;;;;;;13.59;42.70;101306.46;3553498;81;27887;-93
2021/04/14 12:49:14;;;;;;;4.17;1.00;;;;;;;13.69;42.49;101296.90;3545647;80;98339;-87
2021/04/14 12:54:37;;;;;;;3.07;1.20;;;;;;;13.50;40.94;101303.17;3547744;81;27895;-94
2021/04/14 12:59:57;;;;;;;3.47;1.20;;;;;;;13.40;42.31;101297.72;3574124;80;98068;-89
2021/04/14 13:05:19;;;;;;;2.63;1.17;;;;;;;13.35;41.81;101295.88;3529239;82;27909;-88
2021/04/14 13:10:24;;;;;;;3.08;0.75;;;;;;;13.59;42.44;101301.73;3552284;81;98618;-88
2021/04/14 13:15:41;;;;;;;3.98;1.22;;;;;;;13.79;41.54;101289.92;3555529;81;32829;-88
2021/04/14 13:20:42;;;;;;;4.07;0.90;;;;;;;13.79;41.54;101289.92;3497189;81;98486;-91
2021/04/14 13:25:56;;;;;;;2.33;0.93;;;;;;;13.71;40.51;101295.14;3525794;81;27407;-87
2021/04/14 13:31:04;;;;;;;2.60;1.03;;;;;;;13.76;40.90;101288.70;3530783;81;28919;-88
2021/04/14 13:36:19;;;;;;;4.53;1.03;;;;;;;13.76;40.51;101291.47;3545693;79;98785;-90
2021/04/14 13:41:40;;;;;;;4.67;1.33;;;;;;;13.66;39.79;101293.52;3588636;79;28025;-91
2021/04/14 13:46:55;;;;;;;2.72;1.00;;;;;;;13.78;41.09;101290.50;3602178;78;98535;-90
2021/04/14 13:52:10;;;;;;;4.93;1.17;;;;;;;13.84;40.71;101290.97;3610703;79;29429;-93
2021/04/14 13:57:22;;;;;;;3.87;1.00;;;;;;;13.46;40.83;101292.06;3604125;78;98596;-92
2021/04/14 14:02:34;;;;;;;5.87;1.50;;;;;;;12.96;41.13;101282.88;3611525;79;27932;-90
2021/04/14 14:07:47;;;;;;;3.03;1.20;;;;;;;12.76;41.31;101288.84;3623558;79;98694;-91
2021/04/14 14:12:48;;;;;;;2.53;1.23;;;;;;;12.57;41.85;101281.44;3621202;79;28183;-92
2021/04/14 14:17:50;;;;;;;8.97;3.03;;;;;;;12.28;41.66;101271.66;3616066;77;98732;-92
2021/04/14 14:22:56;;;;;;;5.93;1.50;;;;;;;12.28;41.66;101271.66;3608786;79;27543;-91
2021/04/14 14:27:59;;;;;;;3.10;1.10;;;;;;;12.03;41.87;101278.69;3609001;79;98617;-93
2021/04/14 14:33:00;;;;;;;4.10;1.10;;;;;;;11.98;42.23;101275.65;3619496;79;27516;-90
2021/04/14 14:38:13;;;;;;;6.93;1.30;;;;;;;11.97;42.32;101267.73;3620437;78;98758;-91
2021/04/14 14:43:31;;;;;;;2.03;1.13;;;;;;;11.83;41.61;101266.11;3618756;79;27476;-87
2021/04/14 14:48:36;;;;;;;3.00;1.20;;;;;;;11.59;42.74;101278.23;3615943;79;98668;-91
2021/04/14 14:53:44;;;;;;;2.67;1.00;;;;;;;11.10;44.06;101272.20;3620697;79;27616;-93
2021/04/14 14:58:47;;;;;;;5.17;1.45;;;;;;;11.10;44.06;101272.20;3610731;79;98567;-89
2021/04/14 15:03:52;;;;;;;3.33;1.23;;;;;;;11.00;43.75;101274.13;3621801;79;27656;-90
2021/04/14 15:08:53;;;;;;;8.07;3.87;;;;;;;10.89;44.28;101271.15;3622463;79;98781;-89
2021/04/14 15:13:54;;;;;;;8.07;2.77;;;;;;;10.90;44.49;101267.83;3626092;79;25947;-86
2021/04/14 15:18:55;;;;;;;5.93;2.57;;;;;;;10.79;44.23;101275.83;3620288;78;98639;-88
2021/04/14 15:23:56;;;;;;;3.47;1.70;;;;;;;10.67;44.49;101277.31;3616624;79;26005;-91
2021/04/14 15:28:58;;;;;;;3.83;1.00;;;;;;;10.65;44.81;101271.37;3608778;79;98774;-89
2021/04/14 15:34:02;;;;;;;2.80;0.97;;;;;;;10.54;43.86;101281.33;3631655;78;26426;-88
2021/04/14 15:39:06;;;;;;;5.93;1.20;;;;;;;10.34;44.57;101282.95;3619576;79;98599;-85
2021/04/14 15:44:07;;;;;;;4.37;1.52;;;;;;;10.20;45.67;101279.25;3636890;78;33405;-92
2021/04/14 15:49:08;;;;;;;2.87;1.27;;;;;;;10.12;45.99;101288.48;3612664;76;98566;-85
2021/04/14 15:54:09;;;;;;;3.27;1.00;;;;;;;10.07;45.91;101289.31;3613709;79;26234;-91
2021/04/14 15:59:14;;;;;;;5.63;1.90;;;;;;;9.91;47.02;101302.19;3618826;78;98428;-89
2021/04/14 16:04:16;;;;;;;3.47;1.20;;;;;;;9.75;47.62;101304.91;3628480;79;27553;-88
2021/04/14 16:09:21;;;;;;;5.67;1.37;;;;;;;9.58;48.12;101310.70;3603585;78;98154;-86
2021/04/14 16:14:21;;;;;;;4.03;1.17;;;;;;;9.43;48.46;101303.19;3612091;79;27424;-86
2021/04/14 16:19:22;;;;;;;6.23;1.70;;;;;;;9.30;48.97;101310.44;3602278;79;98283;-88
2021/04/14 16:24:23;;;;;;;4.10;1.50;;;;;;;9.19;49.39;101308.75;3613986;79;26493;-89
2021/04/14 16:29:23;;;;;;;5.13;1.20;;;;;;;8.99;49.58;101304.20;3549203;81;99433;-89
2021/04/14 16:34:24;;;;;;;6.93;2.13;;;;;;;8.97;50.39;101305.69;3533553;80;26515;-89
2021/04/14 16:39:26;;;;;;;8.33;3.90;;;;;;;8.98;50.46;101302.60;3531030;82;98164;-88
2021/04/14 16:44:29;;;;;;;6.27;2.50;;;;;;;8.92;50.70;101303.98;3576692;81;26511;-91
2021/04/14 16:49:30;;;;;;;6.67;2.13;;;;;;;8.85;51.01;101298.84;3556368;81;97944;-91
2021/04/14 16:54:31;;;;;;;7.27;2.27;;;;;;;8.75;51.00;101308.91;3562598;81;26054;-89
2021/04/14 16:59:32;;;;;;;6.37;1.80;;;;;;;8.59;51.28;101307.98;3560407;81;98072;-88
2021/04/14 17:04:32;;;;;;;10.70;2.73;;;;;;;8.46;51.32;101306.38;3575065;81;26990;-87
2021/04/14 17:09:33;;;;;;;6.37;1.90;;;;;;;8.43;51.67;101305.13;3558221;80;98494;-90
2021/04/14 17:14:34;;;;;;;9.58;2.20;;;;;;;8.36;51.84;101310.38;3566629;81;26020;-90
2021/04/14 17:19:35;;;;;;;5.27;1.80;;;;;;;8.24;52.25;101311.70;3549757;81;98255;-88
2021/04/14 17:24:35;;;;;;;5.33;1.90;;;;;;;8.12;52.66;101314.39;3560718;81;34221;-92
2021/04/14 17:29:36;;;;;;;6.77;1.67;;;;;;;7.98;52.65;101317.21;3542217;81;98177;-91
2021/04/14 17:34:37;;;;;;;5.50;1.83;;;;;;;7.93;53.04;101318.79;3567252;81;33036;-90
2021/04/14 17:39:37;;;;;;;7.60;3.07;;;;;;;7.84;53.39;101324.36;3574685;81;98210;-90
2021/04/14 17:44:38;;;;;;;5.83;2.13;;;;;;;7.69;53.47;101326.92;3579679;81;32639;-89
2021/04/14 17:49:39;;;;;;;6.13;1.93;;;;;;;7.60;53.47;101335.77;3560801;81;98108;-90
2021/04/14 17:54:43;;;;;;;10.57;2.73;;;;;;;7.50;53.82;101338.36;3580602;81;32149;-89
2021/04/14 17:59:43;;;;;;;13.40;3.33;;;;;;;7.42;53.83;101338.42;3600332;79;98169;-88
2021/04/14 18:04:44;;;;;;;9.07;3.20;;;;;;;7.32;54.06;101341.55;3621021;79;32260;-90
2021/04/14 18:09:44;;;;;;;9.17;3.20;;;;;;;7.18;54.19;101347.84;3609941;78;98207;-88
2021/04/14 18:14:45;;;;;;;8.40;2.73;;;;;;;7.13;54.52;101353.50;3617974;79;31840;-90
2021/04/14 18:19:46;;;;;;;9.03;2.60;;;;;;;7.03;54.62;101351.95;3612773;79;98061;-90
2021/04/14 18:24:47;;;;;;;10.60;3.23;;;;;;;6.81;54.91;101338.55;3608819;79;30422;-89
2021/04/14 18:29:48;;;;;;;11.97;3.87;;;;;;;6.84;55.36;101356.25;3618217;78;98228;-88
2021/04/14 18:34:48;;;;;;;12.20;5.57;;;;;;;6.80;55.81;101352.56;3623842;79;36096;-90
2021/04/14 18:39:49;;;;;;;9.07;3.53;;;;;;;6.72;55.74;101356.94;3594368;80;98350;-90
2021/04/14 18:44:50;;;;;;;10.80;4.60;;;;;;;6.64;56.08;101360.52;3627210;79;35120;-90
2021/04/14 18:49:51;;;;;;;12.60;4.73;;;;;;;6.57;56.18;101364.89;3615263;78;98292;-88
2021/04/14 18:54:54;;;;;;;13.60;4.27;;;;;;;6.52;56.35;101365.07;3617779;79;34941;-89
2021/04/14 18:59:55;;;;;;;15.30;4.27;;;;;;;6.44;56.71;101361.81;3625303;79;98429;-87
2021/04/14 19:04:55;;;;;;;14.07;4.07;;;;;;;6.35;56.83;101364.58;3615083;79;35700;-89
2021/04/14 19:09:56;;;;;;;13.27;4.83;;;;;;;6.30;57.11;101369.41;3605796;78;97939;-90
2021/04/14 19:14:57;;;;;;;15.93;5.30;;;;;;;6.23;57.29;101367.73;3624340;79;35051;-89
2021/04/14 19:19:58;;;;;;;15.10;5.30;;;;;;;6.18;57.61;101374.19;3606515;78;98495;-89
2021/04/14 19:24:58;;;;;;;12.23;4.15;;;;;;;6.13;57.88;101377.64;3620275;79;35063;-89
2021/04/14 19:29:59;;;;;;;8.43;3.30;;;;;;;6.07;58.08;101378.94;3616323;79;98346;-88
2021/04/14 19:35:00;;;;;;;5.37;2.03;;;;;;;6.04;58.34;101389.95;3632669;79;32668;-89
2021/04/14 19:40:01;;;;;;;7.73;2.10;;;;;;;5.99;58.63;101391.48;3571180;77;98206;-89
2021/04/14 19:45:06;;;;;;;4.77;1.80;;;;;;;5.97;58.91;101392.92;3575596;81;32677;-89
2021/04/14 19:50:09;;;;;;;19.80;5.47;;;;;;;5.97;59.27;101400.58;3596003;79;98164;-88
2021/04/14 19:55:11;;;;;;;9.57;3.20;;;;;;;5.92;59.88;101408.94;3600403;80;31364;-88
2021/04/14 20:00:16;;;;;;;12.73;4.10;;;;;;;5.84;61.06;101410.30;3593453;79;98296;-88
2021/04/14 20:05:18;;;;;;;14.53;4.83;;;;;;;5.76;62.19;101415.16;3598552;80;32767;-89
2021/04/14 20:10:22;;;;;;;12.18;4.35;;;;;;;5.75;62.55;101414.37;3575839;80;98397;-88
2021/04/14 20:15:23;;;;;;;15.63;5.50;;;;;;;5.73;62.99;101413.08;3583934;81;33223;-88
2021/04/14 20:20:26;;;;;;;19.60;6.30;;;;;;;5.72;64.15;101412.27;3616269;77;98341;-88
2021/04/14 20:25:32;;;;;;;10.40;4.43;;;;;;;5.70;63.83;101410.98;3609156;79;27081;-88
2021/04/14 20:30:32;;;;;;;7.87;2.73;;;;;;;5.72;64.18;101410.89;3606531;79;98501;-88
2021/04/14 20:35:34;;;;;;;7.83;2.50;;;;;;;5.76;64.20;101411.06;3619272;79;32705;-87
2021/04/14 20:40:38;;;;;;;10.43;3.80;;;;;;;5.76;64.41;101411.88;3607016;79;100768;-87
2021/04/14 20:45:39;;;;;;;7.97;2.70;;;;;;;5.73;64.29;101411.13;3613705;79;33279;-88
2021/04/14 20:50:41;;;;;;;7.50;2.33;;;;;;;5.70;64.72;101409.61;3606651;79;98052;-87
2021/04/14 20:55:42;;;;;;;7.10;2.53;;;;;;;5.76;64.74;101411.88;3617725;79;33360;-89
2021/04/14 21:00:43;;;;;;;7.67;2.53;;;;;;;5.81;64.49;101414.48;3603452;79;98156;-88
2021/04/14 21:05:43;;;;;;;8.57;2.40;;;;;;;5.95;64.24;101409.64;3624162;79;32816;-87
2021/04/14 21:10:45;;;;;;;9.70;2.60;;;;;;;6.07;63.94;101414.47;3607331;79;98296;-88
2021/04/14 21:15:46;;;;;;;9.93;2.60;;;;;;;6.11;63.32;101410.75;3601732;79;32758;-88
2021/04/14 21:20:47;;;;;;;6.40;2.17;;;;;;;6.07;63.09;101414.47;3616720;79;97996;-88
2021/04/14 21:25:48;;;;;;;8.63;2.90;;;;;;;5.93;62.96;101414.63;3620144;79;98287;-86
2021/04/14 21:30:49;;;;;;;8.47;2.40;;;;;;;5.80;62.76;101406.05;3622177;79;32733;-88
2021/04/14 21:35:50;;;;;;;9.13;2.57;;;;;;;5.67;62.74;101408.91;3620627;79;99909;-88
2021/04/14 21:40:50;;;;;;;6.70;2.05;;;;;;;5.54;62.79;101402.45;3568270;80;32842;-87
2021/04/14 21:45:51;;;;;;;5.17;1.83;;;;;;;5.40;62.86;101399.05;3580025;77;98084;-90
2021/04/14 21:50:52;;;;;;;8.53;2.53;;;;;;;5.27;63.16;101401.38;3627692;79;26662;-89
2021/04/14 21:55:53;;;;;;;5.87;2.43;;;;;;;5.19;63.29;101402.14;3636734;79;98198;-90
2021/04/14 22:00:54;;;;;;;7.97;2.17;;;;;;;5.07;63.42;101397.86;3622376;79;26965;-87
2021/04/14 22:05:57;;;;;;;6.90;2.80;;;;;;;5.04;63.64;101401.78;3636395;77;97408;-89
2021/04/14 22:10:58;;;;;;;5.40;1.90;;;;;;;4.99;64.07;101395.92;3616868;79;27007;-87
2021/04/14 22:15:59;;;;;;;8.13;1.97;;;;;;;4.93;63.91;101401.83;3606701;79;98417;-88
2021/04/14 22:21:03;;;;;;;7.90;2.23;;;;;;;4.86;64.06;101399.55;3569994;81;26035;-87
2021/04/14 22:26:08;;;;;;;5.47;1.90;;;;;;;4.83;64.35;101400.75;3555367;79;98342;-86
2021/04/14 22:31:14;;;;;;;8.50;2.20;;;;;;;4.77;64.39;101401.45;3569844;80;29237;-87
2021/04/14 22:36:15;;;;;;;6.93;1.77;;;;;;;4.73;64.75;101407.29;3570068;80;98367;-86
2021/04/14 22:41:20;;;;;;;6.73;2.20;;;;;;;4.68;64.76;101406.61;3574729;80;26883;-87
2021/04/14 22:46:21;;;;;;;7.03;1.80;;;;;;;4.66;64.75;101406.13;3567027;80;98223;-84
2021/04/14 22:51:23;;;;;;;7.20;2.33;;;;;;;4.60;64.89;101406.02;3611534;80;27643;-87
2021/04/14 22:56:24;;;;;;;4.60;1.70;;;;;;;4.56;64.92;101408.58;3617719;80;98220;-86
2021/04/14 23:01:24;;;;;;;5.23;1.53;;;;;;;4.52;64.93;101401.31;3611678;80;26688;-86
2021/04/14 23:06:25;;;;;;;3.50;1.60;;;;;;;4.48;65.08;101405.23;3600039;80;98287;-87
2021/04/14 23:11:26;;;;;;;5.33;1.63;;;;;;;4.46;65.27;101399.84;3615612;80;26237;-86
2021/04/14 23:16:27;;;;;;;4.47;1.47;;;;;;;4.40;65.39;101395.09;3612214;80;98179;-86
2021/04/14 23:21:28;;;;;;;6.60;1.87;;;;;;;4.39;65.70;101396.22;3623726;80;26277;-87
2021/04/14 23:26:28;;;;;;;7.03;3.02;;;;;;;4.41;66.02;101395.88;3607338;80;98263;-86
2021/04/14 23:31:30;;;;;;;6.10;1.80;;;;;;;4.46;65.99;101387.03;3617945;80;33059;-87
2021/04/14 23:36:31;;;;;;;5.60;1.95;;;;;;;4.56;65.96;101390.04;3593987;80;98727;-87